createdAt,value
2019-02-19T00:02:24.676Z,6.83
2019-02-19T00:04:52.985Z,6.12
2019-02-19T00:07:21.285Z,5.85
2019-02-19T00:09:49.578Z,5.55
2019-02-19T00:12:17.811Z,5.83
2019-02-19T00:14:46.139Z,6.20
2019-02-19T00:17:14.399Z,6.05
2019-02-19T00:19:42.729Z,6.05
2019-02-19T00:22:11.044Z,5.55
2019-02-19T00:24:39.399Z,5.40
2019-02-19T00:27:07.643Z,5.58
2019-02-19T00:29:35.932Z,5.28
2019-02-19T00:32:04.164Z,5.78
2019-02-19T00:34:32.550Z,5.85
2019-02-19T00:37:00.903Z,5.70
2019-02-19T00:39:29.128Z,5.80
2019-02-19T00:41:57.431Z,6.50
2019-02-19T00:44:25.701Z,5.80
2019-02-19T00:46:53.946Z,6.00
2019-02-19T00:49:22.162Z,6.00
2019-02-19T00:51:50.441Z,6.03
2019-02-19T00:54:18.890Z,6.10
2019-02-19T00:56:47.133Z,6.33
2019-02-19T00:59:15.442Z,6.10
2019-02-19T01:01:43.695Z,6.08
2019-02-19T01:04:11.964Z,6.60
2019-02-19T01:06:40.237Z,6.45
2019-02-19T01:09:08.655Z,6.37
2019-02-19T01:11:37.006Z,6.05
2019-02-19T01:14:05.287Z,5.95
2019-02-19T01:16:33.554Z,6.28
2019-02-19T01:19:01.802Z,6.58
2019-02-19T01:21:30.027Z,6.33
2019-02-19T01:23:58.289Z,6.15
2019-02-19T01:26:26.547Z,5.80
2019-02-19T01:28:54.825Z,6.22
2019-02-19T01:31:23.037Z,6.40
2019-02-19T01:33:51.278Z,5.40
2019-02-19T01:36:19.536Z,5.95
2019-02-19T01:38:47.842Z,6.30
2019-02-19T01:41:16.108Z,5.75
2019-02-19T01:43:44.363Z,5.80
2019-02-19T01:46:12.625Z,6.08
2019-02-19T01:48:40.986Z,5.95
2019-02-19T01:51:11.585Z,5.37
2019-02-19T01:53:39.870Z,6.08
2019-02-19T01:56:08.118Z,6.15
2019-02-19T01:58:36.397Z,5.55
2019-02-19T02:01:04.649Z,6.15
2019-02-19T02:03:32.878Z,5.30
2019-02-19T02:06:01.135Z,5.90
2019-02-19T02:08:29.464Z,6.05
2019-02-19T02:10:57.763Z,6.47
2019-02-19T02:13:25.993Z,6.10
2019-02-19T02:15:54.266Z,6.28
2019-02-19T02:18:22.594Z,5.50
2019-02-19T02:20:50.863Z,6.22
2019-02-19T02:23:19.120Z,5.70
2019-02-19T02:25:47.345Z,6.33
2019-02-19T02:28:15.605Z,6.60
2019-02-19T02:30:43.911Z,5.90
2019-02-19T02:33:12.170Z,5.87
2019-02-19T02:35:40.411Z,6.92
2019-02-19T02:38:08.649Z,6.03
2019-02-19T02:40:36.902Z,6.90
2019-02-19T02:43:05.152Z,6.42
2019-02-19T02:45:33.411Z,7.28
2019-02-19T02:48:01.634Z,6.55
2019-02-19T02:50:29.870Z,6.87
2019-02-19T02:52:58.144Z,6.95
2019-02-19T02:55:26.374Z,6.90
2019-02-19T02:57:54.640Z,6.10
2019-02-19T03:00:22.885Z,6.58
2019-02-19T03:02:51.163Z,6.45
2019-02-19T03:05:19.488Z,6.45
2019-02-19T03:07:51.787Z,7.20
2019-02-19T03:10:20.099Z,6.83
2019-02-19T03:12:48.367Z,6.87
2019-02-19T03:15:16.898Z,6.62
2019-02-19T03:17:45.136Z,7.42
2019-02-19T03:20:13.406Z,6.58
2019-02-19T03:22:41.650Z,6.92
2019-02-19T03:25:09.906Z,6.70
2019-02-19T03:27:38.208Z,6.50
2019-02-19T03:30:09.296Z,6.12
2019-02-19T03:32:37.581Z,7.08
2019-02-19T03:35:05.988Z,6.72
2019-02-19T03:37:34.238Z,6.75
2019-02-19T03:40:02.481Z,6.17
2019-02-19T03:42:30.730Z,7.20
2019-02-19T03:44:58.983Z,6.60
2019-02-19T03:47:27.225Z,6.75
2019-02-19T03:49:55.533Z,7.10
2019-02-19T03:52:23.924Z,7.80
2019-02-19T03:54:52.206Z,6.87
2019-02-19T03:57:20.476Z,6.15
2019-02-19T03:59:48.759Z,7.42
2019-02-19T04:02:17.310Z,6.60
2019-02-19T04:04:45.623Z,6.47
2019-02-19T04:07:14.127Z,6.72
2019-02-19T04:09:42.368Z,7.12
2019-02-19T04:12:10.663Z,6.85
2019-02-19T04:14:38.970Z,7.47
2019-02-19T04:17:07.227Z,6.90
2019-02-19T04:19:35.474Z,6.67
2019-02-19T04:22:03.716Z,7.00
2019-02-19T04:24:32.130Z,7.92
2019-02-19T04:27:00.639Z,7.97
2019-02-19T04:29:29.021Z,7.45
2019-02-19T04:31:57.475Z,7.30
2019-02-19T04:34:25.734Z,6.72
2019-02-19T04:36:54.026Z,6.87
2019-02-19T04:39:22.298Z,6.67
2019-02-19T04:41:50.571Z,7.50
2019-02-19T04:44:18.856Z,6.60
2019-02-19T04:46:47.117Z,6.90
2019-02-19T04:49:15.382Z,7.10
2019-02-19T04:51:43.624Z,6.70
2019-02-19T04:54:11.893Z,7.25
2019-02-19T04:56:40.139Z,6.95
2019-02-19T04:59:08.402Z,6.50
2019-02-19T05:01:36.701Z,6.50
2019-02-19T05:04:05.076Z,5.95
2019-02-19T05:06:33.346Z,6.65
2019-02-19T05:09:01.615Z,7.33
2019-02-19T05:11:29.889Z,6.50
2019-02-19T05:13:58.166Z,7.20
2019-02-19T05:16:45.903Z,6.62
2019-02-19T05:19:14.175Z,6.67
2019-02-19T05:21:42.435Z,7.05
2019-02-19T05:24:10.676Z,7.33
2019-02-19T05:26:39.317Z,6.37
2019-02-19T05:29:07.605Z,7.30
2019-02-19T05:31:35.885Z,6.62
2019-02-19T05:34:04.148Z,6.08
2019-02-19T05:36:32.424Z,6.95
2019-02-19T05:39:00.695Z,6.67
2019-02-19T05:41:28.952Z,6.33
2019-02-19T05:43:57.221Z,6.92
2019-02-19T05:46:25.444Z,6.55
2019-02-19T05:48:53.709Z,5.62
2019-02-19T05:51:22.032Z,6.17
2019-02-19T05:53:50.362Z,6.72
2019-02-19T05:56:18.666Z,6.30
2019-02-19T05:58:47.011Z,6.53
2019-02-19T06:01:15.240Z,6.10
2019-02-19T06:03:43.514Z,5.83
2019-02-19T06:06:11.784Z,6.08
2019-02-19T06:08:40.060Z,5.95
2019-02-19T06:11:08.468Z,6.00
2019-02-19T06:13:36.781Z,6.33
2019-02-19T06:16:05.212Z,6.42
2019-02-19T06:18:33.526Z,6.37
2019-02-19T06:21:01.825Z,5.50
2019-02-19T06:23:30.095Z,6.20
2019-02-19T06:25:58.369Z,6.20
2019-02-19T06:28:26.644Z,5.92
2019-02-19T06:30:54.906Z,7.22
2019-02-19T06:33:23.320Z,7.10
2019-02-19T06:35:51.575Z,6.83
2019-02-19T06:38:19.832Z,6.58
2019-02-19T06:40:48.050Z,7.70
2019-02-19T06:43:16.302Z,6.70
2019-02-19T06:45:44.577Z,7.83
2019-02-19T06:48:12.860Z,6.97
2019-02-19T06:50:41.137Z,7.45
2019-02-19T06:53:09.449Z,8.05
2019-02-19T06:55:37.712Z,7.53
2019-02-19T06:58:06.531Z,7.60
2019-02-19T07:00:35.012Z,7.70
2019-02-19T07:03:07.701Z,7.55
2019-02-19T07:05:35.951Z,9.73
2019-02-19T07:08:04.219Z,8.13
2019-02-19T07:10:45.171Z,8.53
2019-02-19T07:13:13.441Z,8.43
2019-02-19T07:15:41.762Z,8.73
2019-02-19T07:18:10.002Z,8.75
2019-02-19T07:20:38.226Z,9.55
2019-02-19T07:23:06.506Z,8.88
2019-02-19T07:25:35.835Z,8.28
2019-02-19T07:28:04.058Z,8.45
2019-02-19T07:30:32.305Z,8.55
2019-02-19T07:33:00.555Z,9.30
2019-02-19T07:35:28.821Z,9.45
2019-02-19T07:37:57.067Z,8.90
2019-02-19T07:40:25.343Z,9.60
2019-02-19T07:42:53.644Z,9.23
2019-02-19T07:45:21.909Z,9.50
2019-02-19T07:47:50.231Z,9.45
2019-02-19T07:50:18.478Z,8.65
2019-02-19T07:52:46.786Z,8.78
2019-02-19T07:55:15.103Z,8.55
2019-02-19T07:57:43.378Z,8.93
2019-02-19T08:00:13.139Z,10.15
2019-02-19T08:02:41.450Z,9.93
2019-02-19T08:05:09.812Z,9.00
2019-02-19T08:07:38.048Z,9.13
2019-02-19T08:10:08.872Z,8.43
2019-02-19T08:12:37.225Z,9.38
2019-02-19T08:15:08.226Z,8.88
2019-02-19T08:17:36.451Z,8.48
2019-02-19T08:20:14.915Z,8.85
2019-02-19T08:22:35.874Z,9.20
2019-02-19T08:25:04.790Z,9.10
2019-02-19T08:27:33.029Z,8.28
2019-02-19T08:30:01.313Z,9.13
2019-02-19T08:32:29.569Z,8.35
2019-02-19T08:34:57.857Z,9.20
2019-02-19T08:37:26.074Z,9.85
2019-02-19T08:39:54.339Z,9.28
2019-02-19T08:42:22.704Z,9.10
2019-02-19T08:44:50.995Z,9.75
2019-02-19T08:47:19.262Z,9.58
2019-02-19T08:49:47.511Z,9.25
2019-02-19T08:52:15.802Z,9.70
2019-02-19T08:54:44.062Z,9.83
2019-02-19T08:57:12.301Z,9.38
2019-02-19T08:59:40.602Z,9.63
2019-02-19T09:02:08.815Z,10.28
2019-02-19T09:04:37.068Z,10.38
2019-02-19T09:07:05.415Z,11.00
2019-02-19T09:09:33.724Z,10.32
2019-02-19T09:12:02.013Z,10.78
2019-02-19T09:14:30.282Z,10.90
2019-02-19T09:16:58.599Z,9.63
2019-02-19T09:19:26.862Z,11.28
2019-02-19T09:21:55.200Z,10.80
2019-02-19T09:24:23.475Z,10.95
2019-02-19T09:26:51.779Z,10.80
2019-02-19T09:29:20.008Z,11.53
2019-02-19T09:31:48.236Z,11.78
2019-02-19T09:34:16.677Z,11.50
2019-02-19T09:36:44.915Z,11.03
2019-02-19T09:39:13.288Z,11.75
2019-02-19T09:41:41.537Z,12.85
2019-02-19T09:44:09.916Z,11.55
2019-02-19T09:46:38.197Z,12.58
2019-02-19T09:49:06.555Z,11.18
2019-02-19T09:51:34.920Z,12.13
2019-02-19T09:54:03.146Z,12.00
2019-02-19T09:56:31.503Z,11.18
2019-02-19T09:58:59.838Z,12.70
2019-02-19T10:01:28.430Z,13.22
2019-02-19T10:03:56.802Z,11.60
2019-02-19T10:06:25.137Z,12.70
2019-02-19T10:08:53.438Z,12.80
2019-02-19T10:11:21.672Z,13.15
2019-02-19T10:13:50.057Z,12.40
2019-02-19T10:16:18.273Z,12.35
2019-02-19T10:18:46.625Z,11.93
2019-02-19T10:21:14.857Z,12.43
2019-02-19T10:23:43.157Z,12.68
2019-02-19T10:26:11.437Z,12.15
2019-02-19T10:28:39.707Z,12.28
2019-02-19T10:31:07.960Z,13.20
2019-02-19T10:33:36.269Z,14.63
2019-02-19T10:36:04.590Z,13.88
2019-02-19T10:38:32.866Z,12.75
2019-02-19T10:41:01.200Z,13.40
2019-02-19T10:43:29.563Z,13.08
2019-02-19T10:45:57.874Z,13.22
2019-02-19T10:48:26.141Z,14.00
2019-02-19T10:50:54.395Z,12.78
2019-02-19T10:53:22.638Z,12.65
2019-02-19T10:55:50.900Z,12.82
2019-02-19T10:58:38.578Z,12.65
2019-02-19T11:01:06.820Z,12.47
2019-02-19T11:03:35.158Z,12.53
2019-02-19T11:06:03.419Z,12.85
2019-02-19T11:08:31.692Z,12.95
2019-02-19T11:11:00.047Z,13.30
2019-02-19T11:13:28.327Z,12.98
2019-02-19T11:15:56.583Z,13.18
2019-02-19T11:18:28.374Z,13.30
2019-02-19T11:20:54.835Z,13.48
2019-02-19T11:23:23.129Z,12.50
2019-02-19T11:25:51.362Z,12.00
2019-02-19T11:28:19.634Z,12.68
2019-02-19T11:30:47.887Z,12.37
2019-02-19T11:33:16.164Z,12.33
2019-02-19T11:35:44.468Z,11.30
2019-02-19T11:38:12.744Z,11.63
2019-02-19T11:40:41.362Z,12.03
2019-02-19T11:43:09.627Z,11.40
2019-02-19T11:45:37.882Z,11.18
2019-02-19T11:48:06.333Z,11.83
2019-02-19T11:50:34.634Z,11.60
2019-02-19T11:53:22.366Z,11.68
2019-02-19T11:55:50.816Z,12.18
2019-02-19T11:58:19.078Z,11.45
2019-02-19T12:00:47.350Z,11.00
2019-02-19T12:03:15.592Z,10.38
2019-02-19T12:05:43.869Z,10.70
2019-02-19T12:08:12.115Z,10.78
2019-02-19T12:10:40.366Z,11.38
2019-02-19T12:13:08.622Z,11.20
2019-02-19T12:15:36.973Z,10.30
2019-02-19T12:18:05.205Z,10.40
2019-02-19T12:20:33.529Z,10.28
2019-02-19T12:23:01.812Z,10.20
2019-02-19T12:25:30.038Z,9.20
2019-02-19T12:27:58.333Z,10.90
2019-02-19T12:30:26.570Z,10.85
2019-02-19T12:32:54.831Z,10.40
2019-02-19T12:35:23.154Z,10.15
2019-02-19T12:37:51.399Z,9.55
2019-02-19T12:40:19.680Z,10.18
2019-02-19T12:42:47.925Z,7.45
2019-02-19T12:45:16.251Z,8.55
2019-02-19T12:47:44.549Z,9.25
2019-02-19T12:50:14.985Z,8.88
2019-02-19T12:52:43.337Z,8.90
2019-02-19T12:55:11.678Z,8.48
2019-02-19T12:57:39.968Z,7.65
2019-02-19T13:00:16.530Z,7.25
2019-02-19T13:02:44.914Z,6.85
2019-02-19T13:05:14.612Z,7.80
2019-02-19T13:07:42.857Z,8.48
2019-02-19T13:10:12.868Z,9.60
2019-02-19T13:12:41.181Z,9.20
2019-02-19T13:15:16.731Z,6.70
2019-02-19T13:17:45.128Z,8.55
2019-02-19T13:20:14.485Z,10.28
2019-02-19T13:22:42.784Z,9.58
2019-02-19T13:25:11.598Z,9.58
2019-02-19T13:27:39.875Z,10.05
2019-02-19T13:30:31.918Z,8.93
2019-02-19T13:33:00.208Z,9.20
2019-02-19T13:35:28.429Z,9.98
2019-02-19T13:37:56.705Z,9.45
2019-02-19T13:40:24.986Z,10.43
2019-02-19T13:42:53.234Z,9.45
2019-02-19T13:45:21.520Z,9.43
2019-02-19T13:47:49.786Z,9.83
2019-02-19T13:50:21.331Z,9.25
2019-02-19T13:53:06.334Z,8.53
2019-02-19T13:55:36.258Z,8.85
2019-02-19T13:58:04.599Z,8.00
2019-02-19T14:00:34.513Z,7.58
2019-02-19T14:03:03.322Z,8.15
2019-02-19T14:05:31.587Z,8.40
2019-02-19T14:07:59.814Z,8.50
2019-02-19T14:10:28.193Z,8.55
2019-02-19T14:12:56.424Z,8.28
2019-02-19T14:16:01.927Z,8.73
2019-02-19T14:18:50.423Z,8.60
2019-02-19T14:21:29.234Z,8.03
2019-02-19T14:24:05.389Z,8.33
2019-02-19T14:26:35.343Z,7.62
2019-02-19T14:29:11.006Z,5.70
2019-02-19T14:31:49.702Z,3.83
2019-02-19T14:34:22.606Z,4.35
2019-02-19T14:37:01.474Z,3.60
2019-02-19T14:39:31.399Z,2.85
2019-02-19T14:42:03.932Z,2.90
2019-02-19T14:44:33.840Z,2.60
2019-02-19T14:47:30.654Z,2.85
2019-02-19T14:50:16.751Z,3.37
2019-02-19T14:52:53.129Z,2.80
2019-02-19T14:55:32.130Z,3.02
2019-02-19T14:58:13.955Z,2.72
2019-02-19T15:01:00.333Z,3.17
2019-02-19T15:03:46.816Z,3.67
2019-02-19T15:06:25.809Z,3.45
2019-02-19T15:08:55.798Z,3.60
2019-02-19T15:11:34.602Z,2.95
2019-02-19T15:14:20.511Z,3.50
2019-02-19T15:17:06.755Z,3.20
2019-02-19T15:25:18.812Z,3.52
2019-02-19T15:27:55.004Z,3.67
2019-02-19T15:33:25.617Z,3.50
2019-02-19T15:35:55.562Z,4.55
2019-02-19T15:38:31.621Z,3.83
2019-02-19T15:41:16.714Z,4.17
2019-02-19T15:43:49.542Z,3.87
2019-02-19T15:46:19.492Z,4.17
2019-02-19T15:48:55.457Z,4.50
2019-02-19T15:51:34.598Z,4.65
2019-02-19T15:54:16.831Z,4.40
2019-02-19T15:56:55.458Z,4.90
2019-02-19T15:59:25.363Z,4.55
2019-02-19T16:02:10.314Z,4.12
2019-02-19T16:04:40.236Z,4.12
2019-02-19T16:07:15.958Z,3.80
2019-02-19T16:09:45.869Z,4.10
2019-02-19T16:12:15.769Z,4.47
2019-02-19T16:14:54.203Z,4.35
2019-02-19T16:17:24.120Z,4.00
2019-02-19T16:19:57.037Z,3.67
2019-02-19T16:22:28.594Z,3.98
2019-02-19T16:25:10.741Z,4.12
2019-02-19T16:27:43.771Z,3.60
2019-02-19T16:30:13.809Z,3.47
2019-02-19T16:32:43.729Z,2.83
2019-02-19T16:37:56.649Z,3.47
2019-02-19T16:40:26.606Z,3.02
2019-02-19T16:42:59.215Z,3.40
2019-02-19T16:45:29.117Z,3.52
2019-02-19T16:48:10.991Z,3.12
2019-02-19T16:50:48.018Z,3.37
2019-02-19T16:53:17.904Z,3.12
2019-02-19T16:56:04.477Z,3.42
2019-02-19T17:01:26.324Z,3.55
2019-02-19T17:04:03.456Z,3.22
2019-02-19T17:06:52.286Z,3.35
2019-02-19T17:12:22.588Z,2.83
2019-02-19T17:14:55.499Z,2.87
2019-02-19T17:17:44.272Z,2.90
2019-02-19T17:20:28.917Z,3.70
2019-02-19T17:22:51.653Z,2.80
2019-02-19T17:25:24.291Z,3.08
2019-02-19T17:27:54.195Z,3.02
2019-02-19T17:30:24.139Z,3.12
2019-02-19T17:32:57.156Z,2.90
2019-02-19T17:38:14.238Z,2.62
2019-02-19T17:40:36.516Z,2.72
2019-02-19T17:43:12.330Z,2.52
2019-02-19T17:45:55.493Z,2.83
2019-02-19T17:48:34.712Z,2.70
2019-02-19T17:51:04.665Z,2.40
2019-02-19T17:53:34.622Z,2.55
2019-02-19T17:56:16.321Z,3.40
2019-02-19T17:58:55.183Z,2.77
2019-02-19T18:01:27.965Z,3.52
2019-02-19T18:03:59.386Z,3.12
2019-02-19T18:06:29.411Z,3.40
2019-02-19T18:08:59.370Z,3.58
2019-02-19T18:11:32.137Z,3.42
2019-02-19T18:14:02.063Z,3.30
2019-02-19T18:16:38.012Z,3.90
2019-02-19T18:19:06.333Z,3.75
2019-02-19T18:21:34.608Z,3.65
2019-02-19T18:24:02.895Z,4.10
2019-02-19T18:26:31.305Z,3.85
2019-02-19T18:28:59.739Z,4.75
2019-02-19T18:31:27.991Z,4.35
2019-02-19T18:33:56.320Z,4.10
2019-02-19T18:36:24.589Z,3.80
2019-02-19T18:38:52.852Z,4.10
2019-02-19T18:41:22.762Z,4.15
2019-02-19T18:43:51.007Z,4.58
2019-02-19T18:46:20.354Z,4.20
2019-02-19T18:48:48.603Z,4.58
2019-02-19T18:51:17.117Z,5.00
2019-02-19T18:53:45.436Z,4.87
2019-02-19T18:56:13.736Z,5.22
2019-02-19T18:58:42.007Z,5.25
2019-02-19T19:01:10.280Z,5.40
2019-02-19T19:03:38.574Z,5.70
2019-02-19T19:06:06.833Z,6.20
2019-02-19T19:08:35.140Z,6.33
2019-02-19T19:11:03.420Z,6.55
2019-02-19T19:13:31.763Z,6.50
2019-02-19T19:16:00.086Z,6.50
2019-02-19T19:18:28.419Z,8.30
2019-02-19T19:20:56.692Z,7.53
2019-02-19T19:23:25.093Z,7.47
2019-02-19T19:25:53.371Z,8.45
2019-02-19T19:28:21.655Z,9.00
2019-02-19T19:30:49.911Z,8.48
2019-02-19T19:33:18.180Z,9.55
2019-02-19T19:35:46.474Z,8.93
2019-02-19T19:38:14.812Z,8.23
2019-02-19T19:40:43.128Z,8.73
2019-02-19T19:43:11.388Z,8.05
2019-02-19T19:45:39.670Z,8.30
2019-02-19T19:48:07.911Z,9.48
2019-02-19T19:50:36.232Z,9.55
2019-02-19T19:53:04.646Z,8.50
2019-02-19T19:55:33.181Z,9.13
2019-02-19T19:58:06.162Z,9.13
2019-02-19T20:03:02.089Z,9.25
2019-02-19T20:05:30.325Z,9.60
2019-02-19T20:07:58.677Z,8.88
2019-02-19T20:10:26.933Z,8.78
2019-02-19T20:12:55.214Z,8.20
2019-02-19T20:15:23.563Z,8.55
2019-02-19T20:17:51.889Z,8.93
2019-02-19T20:20:20.218Z,8.50
2019-02-19T20:22:48.954Z,9.15
2019-02-19T20:25:17.357Z,8.08
2019-02-19T20:27:48.631Z,7.75
2019-02-19T20:30:16.992Z,8.63
2019-02-19T20:32:45.356Z,12.33
2019-02-19T20:35:13.823Z,9.43
2019-02-19T20:37:42.132Z,9.08
2019-02-19T20:40:11.706Z,8.50
2019-02-19T20:42:39.980Z,9.28
2019-02-19T20:45:12.467Z,9.45
2019-02-19T20:47:40.799Z,9.95
2019-02-19T20:50:11.477Z,10.35
2019-02-19T20:52:39.734Z,10.15
2019-02-19T20:55:09.760Z,9.78
2019-02-19T20:57:38.036Z,9.83
2019-02-19T21:00:17.429Z,9.53
2019-02-19T21:02:45.719Z,9.18
2019-02-19T21:05:14.032Z,9.90
2019-02-19T21:07:42.309Z,10.30
2019-02-19T21:10:15.803Z,9.33
2019-02-19T21:12:44.075Z,9.25
2019-02-19T21:15:13.867Z,9.33
2019-02-19T21:17:42.222Z,9.05
2019-02-19T21:20:11.531Z,8.80
2019-02-19T21:22:39.937Z,9.85
2019-02-19T21:25:10.638Z,8.75
2019-02-19T21:27:38.937Z,8.75
2019-02-19T21:30:18.174Z,8.35
2019-02-19T21:32:47.029Z,8.18
2019-02-19T21:35:15.370Z,8.13
2019-02-19T21:37:43.791Z,9.10
2019-02-19T21:40:13.553Z,8.23
2019-02-19T21:42:41.809Z,11.10
2019-02-19T21:45:14.103Z,10.03
2019-02-19T21:47:42.371Z,9.03
2019-02-19T21:50:15.840Z,8.33
2019-02-19T21:52:44.369Z,8.60
2019-02-19T21:55:12.964Z,8.80
2019-02-19T21:57:41.285Z,8.38
2019-02-19T22:00:15.419Z,9.15
2019-02-19T22:02:43.724Z,9.28
2019-02-19T22:05:12.082Z,7.85
2019-02-19T22:07:40.356Z,8.08
2019-02-19T22:10:10.451Z,8.55
2019-02-19T22:12:38.784Z,8.13
2019-02-19T22:15:09.640Z,8.53
2019-02-19T22:17:37.926Z,8.40
2019-02-19T22:20:13.754Z,9.93
2019-02-19T22:22:42.063Z,9.70
2019-02-19T22:25:11.979Z,9.20
2019-02-19T22:27:40.601Z,9.00
2019-02-19T22:30:09.368Z,8.58
2019-02-19T22:32:37.676Z,7.90
2019-02-19T22:35:07.552Z,8.60
2019-02-19T22:37:35.833Z,7.80
2019-02-19T22:40:08.186Z,9.10
2019-02-19T22:42:36.506Z,8.13
2019-02-19T22:45:07.703Z,9.38
2019-02-19T22:47:35.998Z,8.53
2019-02-19T22:50:07.054Z,8.85
2019-02-19T22:52:35.505Z,8.83
2019-02-19T22:55:08.942Z,9.25
2019-02-19T22:57:43.114Z,8.85
2019-02-19T23:00:24.463Z,9.10
2019-02-19T23:02:52.793Z,9.08
2019-02-19T23:05:21.099Z,7.65
2019-02-19T23:07:49.428Z,9.10
2019-02-19T23:10:17.681Z,8.80
2019-02-19T23:12:45.992Z,9.30
2019-02-19T23:15:14.299Z,9.43
2019-02-19T23:17:42.548Z,8.50
2019-02-19T23:20:10.886Z,8.78
2019-02-19T23:22:39.178Z,8.50
2019-02-19T23:25:07.504Z,9.68
2019-02-19T23:27:35.853Z,9.00
2019-02-19T23:30:05.147Z,9.65
2019-02-19T23:32:33.427Z,9.88
2019-02-19T23:35:11.978Z,11.18
2019-02-19T23:37:40.217Z,11.22
2019-02-19T23:40:08.830Z,11.55
2019-02-19T23:42:37.084Z,10.15
2019-02-19T23:45:07.469Z,9.28
2019-02-19T23:47:35.718Z,9.28
2019-02-19T23:50:08.043Z,11.40
2019-02-19T23:52:36.384Z,11.28
2019-02-19T23:55:06.678Z,9.88
2019-02-19T23:57:34.991Z,10.32
